Terminal Aerodrome Forecast
Issued by NWS

Home | Current Version | Previous Version | Text Only | Print | Product List | Glossary On
Versions: 1 2 3 4 5 6 7 8 9 10 11 12 13 14 15 16 17 18
000
FTUS43 KABR 022300
TAFATY
TAF
KATY 022333Z 0300/0324 21011KT P6SM FEW250
     FM030600 17008KT P6SM SCT035 BKN120
      TEMPO 0310/0312 TS BKN035 OVC100CB
     FM031800 18011KT P6SM SCT050=

USA.gov is the U.S. government's official web portal to all federal, state and local government web resources and services.